sensor_id;sensor_type;location;lat;lon;timestamp;P1;durP1;ratioP1;P2;durP2;ratioP2
60919;SDS011;59039;52.108;19.942;2022-07-01T00:01:14;16.40;;;10.10;;
60919;SDS011;59039;52.108;19.942;2022-07-01T00:03:49;15.20;;;10.60;;
60919;SDS011;59039;52.108;19.942;2022-07-01T00:06:15;18.90;;;10.20;;
60919;SDS011;59039;52.108;19.942;2022-07-01T00:08:58;16.20;;;10.40;;
60919;SDS011;59039;52.108;19.942;2022-07-01T00:11:25;14.20;;;10.30;;
60919;SDS011;59039;52.108;19.942;2022-07-01T00:14:00;18.60;;;10.80;;
60919;SDS011;59039;52.108;19.942;2022-07-01T00:16:26;16.70;;;11.00;;
60919;SDS011;59039;52.108;19.942;2022-07-01T00:18:53;14.90;;;11.40;;
60919;SDS011;59039;52.108;19.942;2022-07-01T00:21:19;23.70;;;11.60;;
60919;SDS011;59039;52.108;19.942;2022-07-01T00:23:53;15.90;;;11.20;;
60919;SDS011;59039;52.108;19.942;2022-07-01T00:26:28;19.00;;;11.90;;
60919;SDS011;59039;52.108;19.942;2022-07-01T00:28:53;16.90;;;11.80;;
60919;SDS011;59039;52.108;19.942;2022-07-01T00:31:19;20.20;;;12.00;;
60919;SDS011;59039;52.108;19.942;2022-07-01T00:33:52;20.40;;;11.50;;
60919;SDS011;59039;52.108;19.942;2022-07-01T00:36:17;15.50;;;11.70;;
60919;SDS011;59039;52.108;19.942;2022-07-01T00:38:46;15.80;;;11.80;;
60919;SDS011;59039;52.108;19.942;2022-07-01T00:41:11;19.00;;;12.90;;
60919;SDS011;59039;52.108;19.942;2022-07-01T00:43:40;17.60;;;12.30;;
60919;SDS011;59039;52.108;19.942;2022-07-01T00:46:05;17.30;;;13.00;;
60919;SDS011;59039;52.108;19.942;2022-07-01T00:48:34;21.20;;;12.40;;
60919;SDS011;59039;52.108;19.942;2022-07-01T00:51:03;19.60;;;12.80;;
60919;SDS011;59039;52.108;19.942;2022-07-01T00:53:32;15.70;;;12.50;;
60919;SDS011;59039;52.108;19.942;2022-07-01T00:56:00;16.70;;;12.80;;
60919;SDS011;59039;52.108;19.942;2022-07-01T00:58:26;16.00;;;12.00;;
60919;SDS011;59039;52.108;19.942;2022-07-01T01:00:55;19.60;;;12.20;;
60919;SDS011;59039;52.108;19.942;2022-07-01T01:03:23;18.10;;;12.20;;
60919;SDS011;59039;52.108;19.942;2022-07-01T01:05:49;19.70;;;13.10;;
60919;SDS011;59039;52.108;19.942;2022-07-01T01:08:15;16.70;;;12.60;;
60919;SDS011;59039;52.108;19.942;2022-07-01T01:10:40;19.30;;;12.50;;
60919;SDS011;59039;52.108;19.942;2022-07-01T01:13:07;17.70;;;12.40;;
60919;SDS011;59039;52.108;19.942;2022-07-01T01:15:34;15.30;;;12.00;;
60919;SDS011;59039;52.108;19.942;2022-07-01T01:17:59;16.30;;;11.90;;
60919;SDS011;59039;52.108;19.942;2022-07-01T01:20:32;16.50;;;11.70;;
60919;SDS011;59039;52.108;19.942;2022-07-01T01:25:40;16.50;;;11.50;;
60919;SDS011;59039;52.108;19.942;2022-07-01T01:28:06;18.90;;;12.10;;
60919;SDS011;59039;52.108;19.942;2022-07-01T01:30:36;19.30;;;13.40;;
60919;SDS011;59039;52.108;19.942;2022-07-01T01:33:02;15.30;;;11.90;;
60919;SDS011;59039;52.108;19.942;2022-07-01T01:35:28;19.20;;;13.10;;
60919;SDS011;59039;52.108;19.942;2022-07-01T01:37:53;17.90;;;12.50;;
60919;SDS011;59039;52.108;19.942;2022-07-01T01:40:18;23.60;;;14.40;;
60919;SDS011;59039;52.108;19.942;2022-07-01T01:42:53;19.20;;;13.50;;
60919;SDS011;59039;52.108;19.942;2022-07-01T01:45:27;19.80;;;13.90;;
60919;SDS011;59039;52.108;19.942;2022-07-01T01:47:53;17.60;;;14.20;;
60919;SDS011;59039;52.108;19.942;2022-07-01T01:50:19;18.10;;;12.40;;
60919;SDS011;59039;52.108;19.942;2022-07-01T01:52:45;16.70;;;13.50;;
60919;SDS011;59039;52.108;19.942;2022-07-01T01:55:13;18.30;;;13.40;;
60919;SDS011;59039;52.108;19.942;2022-07-01T01:57:39;18.70;;;13.90;;
60919;SDS011;59039;52.108;19.942;2022-07-01T02:00:07;19.50;;;14.70;;
60919;SDS011;59039;52.108;19.942;2022-07-01T02:02:39;20.10;;;14.70;;
60919;SDS011;59039;52.108;19.942;2022-07-01T02:05:06;22.70;;;15.50;;
60919;SDS011;59039;52.108;19.942;2022-07-01T02:10:02;22.00;;;14.90;;
60919;SDS011;59039;52.108;19.942;2022-07-01T02:12:30;25.60;;;16.10;;
60919;SDS011;59039;52.108;19.942;2022-07-01T02:15:06;19.20;;;15.50;;
60919;SDS011;59039;52.108;19.942;2022-07-01T02:17:37;23.70;;;17.40;;
60919;SDS011;59039;52.108;19.942;2022-07-01T02:20:05;20.90;;;15.70;;
60919;SDS011;59039;52.108;19.942;2022-07-01T02:22:36;21.90;;;16.60;;
60919;SDS011;59039;52.108;19.942;2022-07-01T02:25:08;23.70;;;16.10;;
60919;SDS011;59039;52.108;19.942;2022-07-01T02:27:52;19.20;;;16.20;;
60919;SDS011;59039;52.108;19.942;2022-07-01T02:30:18;22.60;;;16.20;;
60919;SDS011;59039;52.108;19.942;2022-07-01T02:33:07;21.40;;;15.40;;
60919;SDS011;59039;52.108;19.942;2022-07-01T02:35:35;22.40;;;15.90;;
60919;SDS011;59039;52.108;19.942;2022-07-01T02:38:04;22.70;;;16.90;;
60919;SDS011;59039;52.108;19.942;2022-07-01T02:40:30;23.20;;;17.70;;
60919;SDS011;59039;52.108;19.942;2022-07-01T02:42:56;19.30;;;15.70;;
60919;SDS011;59039;52.108;19.942;2022-07-01T02:45:25;24.00;;;16.60;;
60919;SDS011;59039;52.108;19.942;2022-07-01T02:47:50;23.50;;;15.90;;
60919;SDS011;59039;52.108;19.942;2022-07-01T02:53:10;24.40;;;15.50;;
60919;SDS011;59039;52.108;19.942;2022-07-01T02:55:37;22.90;;;15.70;;
60919;SDS011;59039;52.108;19.942;2022-07-01T02:58:03;18.80;;;14.70;;
60919;SDS011;59039;52.108;19.942;2022-07-01T03:00:37;18.80;;;14.30;;
60919;SDS011;59039;52.108;19.942;2022-07-01T03:03:08;20.10;;;14.80;;
60919;SDS011;59039;52.108;19.942;2022-07-01T03:05:39;19.30;;;14.70;;
60919;SDS011;59039;52.108;19.942;2022-07-01T03:08:07;19.20;;;14.80;;
60919;SDS011;59039;52.108;19.942;2022-07-01T03:10:32;24.70;;;16.00;;
60919;SDS011;59039;52.108;19.942;2022-07-01T03:13:02;18.70;;;14.40;;
60919;SDS011;59039;52.108;19.942;2022-07-01T03:15:30;19.80;;;14.30;;
60919;SDS011;59039;52.108;19.942;2022-07-01T03:17:59;20.60;;;13.80;;
60919;SDS011;59039;52.108;19.942;2022-07-01T03:20:26;20.70;;;13.60;;
60919;SDS011;59039;52.108;19.942;2022-07-01T03:22:59;18.60;;;14.70;;
60919;SDS011;59039;52.108;19.942;2022-07-01T03:25:30;17.30;;;12.60;;
60919;SDS011;59039;52.108;19.942;2022-07-01T03:30:45;20.00;;;13.30;;
60919;SDS011;59039;52.108;19.942;2022-07-01T03:33:33;21.00;;;13.50;;
60919;SDS011;59039;52.108;19.942;2022-07-01T03:35:58;20.80;;;13.30;;
60919;SDS011;59039;52.108;19.942;2022-07-01T03:38:23;20.50;;;13.20;;
60919;SDS011;59039;52.108;19.942;2022-07-01T03:40:48;16.40;;;12.40;;
60919;SDS011;59039;52.108;19.942;2022-07-01T03:43:14;19.80;;;12.60;;
60919;SDS011;59039;52.108;19.942;2022-07-01T03:45:39;17.60;;;11.10;;
60919;SDS011;59039;52.108;19.942;2022-07-01T03:48:08;19.40;;;11.70;;
60919;SDS011;59039;52.108;19.942;2022-07-01T03:50:36;16.50;;;12.30;;
60919;SDS011;59039;52.108;19.942;2022-07-01T03:53:06;18.90;;;12.00;;
60919;SDS011;59039;52.108;19.942;2022-07-01T03:55:42;19.40;;;11.80;;
60919;SDS011;59039;52.108;19.942;2022-07-01T03:58:08;19.80;;;12.30;;
60919;SDS011;59039;52.108;19.942;2022-07-01T04:00:42;17.50;;;11.10;;
60919;SDS011;59039;52.108;19.942;2022-07-01T04:03:08;16.00;;;11.90;;
60919;SDS011;59039;52.108;19.942;2022-07-01T04:08:16;15.30;;;11.60;;
60919;SDS011;59039;52.108;19.942;2022-07-01T04:10:42;14.60;;;11.40;;
60919;SDS011;59039;52.108;19.942;2022-07-01T04:13:13;15.00;;;10.40;;
60919;SDS011;59039;52.108;19.942;2022-07-01T04:15:48;17.50;;;11.20;;
60919;SDS011;59039;52.108;19.942;2022-07-01T04:18:14;17.40;;;10.80;;
60919;SDS011;59039;52.108;19.942;2022-07-01T04:20:40;14.30;;;11.00;;
60919;SDS011;59039;52.108;19.942;2022-07-01T04:23:08;13.40;;;11.30;;
60919;SDS011;59039;52.108;19.942;2022-07-01T04:25:43;16.90;;;11.00;;
60919;SDS011;59039;52.108;19.942;2022-07-01T04:28:29;15.80;;;10.90;;
60919;SDS011;59039;52.108;19.942;2022-07-01T04:31:03;19.00;;;12.40;;
60919;SDS011;59039;52.108;19.942;2022-07-01T04:33:28;15.40;;;11.20;;
60919;SDS011;59039;52.108;19.942;2022-07-01T04:36:01;18.70;;;12.30;;
60919;SDS011;59039;52.108;19.942;2022-07-01T04:38:27;20.30;;;13.40;;
60919;SDS011;59039;52.108;19.942;2022-07-01T04:40:52;22.40;;;12.70;;
60919;SDS011;59039;52.108;19.942;2022-07-01T04:43:17;18.40;;;12.30;;
60919;SDS011;59039;52.108;19.942;2022-07-01T04:45:43;19.50;;;13.80;;
60919;SDS011;59039;52.108;19.942;2022-07-01T04:48:31;19.80;;;13.30;;
60919;SDS011;59039;52.108;19.942;2022-07-01T04:51:17;18.70;;;12.90;;
60919;SDS011;59039;52.108;19.942;2022-07-01T04:53:45;17.40;;;13.10;;
60919;SDS011;59039;52.108;19.942;2022-07-01T04:56:14;18.60;;;13.20;;
60919;SDS011;59039;52.108;19.942;2022-07-01T04:58:39;16.60;;;13.30;;
60919;SDS011;59039;52.108;19.942;2022-07-01T05:01:07;17.60;;;13.10;;
60919;SDS011;59039;52.108;19.942;2022-07-01T05:03:33;20.20;;;13.00;;
60919;SDS011;59039;52.108;19.942;2022-07-01T05:05:58;20.00;;;13.30;;
60919;SDS011;59039;52.108;19.942;2022-07-01T05:08:23;21.40;;;13.90;;
60919;SDS011;59039;52.108;19.942;2022-07-01T05:10:49;19.70;;;13.30;;
60919;SDS011;59039;52.108;19.942;2022-07-01T05:13:27;20.60;;;14.00;;
60919;SDS011;59039;52.108;19.942;2022-07-01T05:15:53;23.10;;;14.00;;
60919;SDS011;59039;52.108;19.942;2022-07-01T05:18:18;21.70;;;14.40;;
60919;SDS011;59039;52.108;19.942;2022-07-01T05:20:52;19.40;;;14.20;;
60919;SDS011;59039;52.108;19.942;2022-07-01T05:23:18;24.60;;;14.60;;
60919;SDS011;59039;52.108;19.942;2022-07-01T05:25:43;21.00;;;14.40;;
60919;SDS011;59039;52.108;19.942;2022-07-01T05:28:09;18.00;;;14.40;;
60919;SDS011;59039;52.108;19.942;2022-07-01T05:30:34;19.20;;;15.30;;
60919;SDS011;59039;52.108;19.942;2022-07-01T05:33:20;17.10;;;14.70;;
60919;SDS011;59039;52.108;19.942;2022-07-01T05:35:48;18.50;;;14.40;;
60919;SDS011;59039;52.108;19.942;2022-07-01T05:38:13;17.70;;;14.20;;
60919;SDS011;59039;52.108;19.942;2022-07-01T05:40:39;17.00;;;14.70;;
60919;SDS011;59039;52.108;19.942;2022-07-01T05:43:05;17.10;;;14.70;;
60919;SDS011;59039;52.108;19.942;2022-07-01T05:45:36;18.90;;;14.80;;
60919;SDS011;59039;52.108;19.942;2022-07-01T05:48:02;22.20;;;14.60;;
60919;SDS011;59039;52.108;19.942;2022-07-01T05:50:27;19.70;;;14.30;;
60919;SDS011;59039;52.108;19.942;2022-07-01T05:52:53;16.00;;;13.50;;
60919;SDS011;59039;52.108;19.942;2022-07-01T05:55:18;17.30;;;15.30;;
60919;SDS011;59039;52.108;19.942;2022-07-01T05:57:46;20.90;;;16.00;;
60919;SDS011;59039;52.108;19.942;2022-07-01T06:00:15;19.60;;;15.80;;
60919;SDS011;59039;52.108;19.942;2022-07-01T06:02:40;23.20;;;16.00;;
60919;SDS011;59039;52.108;19.942;2022-07-01T06:05:06;19.60;;;15.80;;
60919;SDS011;59039;52.108;19.942;2022-07-01T06:07:32;19.20;;;15.10;;
60919;SDS011;59039;52.108;19.942;2022-07-01T06:10:00;18.80;;;15.20;;
60919;SDS011;59039;52.108;19.942;2022-07-01T06:12:25;20.60;;;15.50;;
60919;SDS011;59039;52.108;19.942;2022-07-01T06:14:55;21.90;;;16.50;;
60919;SDS011;59039;52.108;19.942;2022-07-01T06:17:21;21.90;;;16.90;;
60919;SDS011;59039;52.108;19.942;2022-07-01T06:19:49;20.30;;;16.40;;
60919;SDS011;59039;52.108;19.942;2022-07-01T06:25:13;21.10;;;17.60;;
60919;SDS011;59039;52.108;19.942;2022-07-01T06:27:38;23.40;;;17.60;;
60919;SDS011;59039;52.108;19.942;2022-07-01T06:30:13;18.00;;;16.10;;
60919;SDS011;59039;52.108;19.942;2022-07-01T06:33:03;20.10;;;17.50;;
60919;SDS011;59039;52.108;19.942;2022-07-01T06:35:31;23.40;;;17.60;;
60919;SDS011;59039;52.108;19.942;2022-07-01T06:37:56;21.30;;;16.80;;
60919;SDS011;59039;52.108;19.942;2022-07-01T06:40:22;22.30;;;18.20;;
60919;SDS011;59039;52.108;19.942;2022-07-01T06:42:52;20.30;;;17.60;;
60919;SDS011;59039;52.108;19.942;2022-07-01T06:45:18;24.50;;;18.40;;
60919;SDS011;59039;52.108;19.942;2022-07-01T06:47:43;19.30;;;17.30;;
60919;SDS011;59039;52.108;19.942;2022-07-01T06:50:08;20.70;;;17.10;;
60919;SDS011;59039;52.108;19.942;2022-07-01T06:52:43;22.60;;;18.00;;
60919;SDS011;59039;52.108;19.942;2022-07-01T06:55:29;21.00;;;18.70;;
60919;SDS011;59039;52.108;19.942;2022-07-01T06:57:54;21.00;;;17.50;;
60919;SDS011;59039;52.108;19.942;2022-07-01T07:00:21;19.50;;;17.20;;
60919;SDS011;59039;52.108;19.942;2022-07-01T07:02:47;19.60;;;17.50;;
60919;SDS011;59039;52.108;19.942;2022-07-01T07:05:12;21.90;;;18.00;;
60919;SDS011;59039;52.108;19.942;2022-07-01T07:07:40;20.20;;;18.00;;
60919;SDS011;59039;52.108;19.942;2022-07-01T07:10:06;19.40;;;17.40;;
60919;SDS011;59039;52.108;19.942;2022-07-01T07:12:32;22.80;;;17.10;;
60919;SDS011;59039;52.108;19.942;2022-07-01T07:14:57;20.30;;;16.50;;
60919;SDS011;59039;52.108;19.942;2022-07-01T07:17:43;20.80;;;17.80;;
60919;SDS011;59039;52.108;19.942;2022-07-01T07:20:08;20.40;;;17.50;;
60919;SDS011;59039;52.108;19.942;2022-07-01T07:22:34;19.90;;;17.00;;
60919;SDS011;59039;52.108;19.942;2022-07-01T07:24:59;20.90;;;18.20;;
60919;SDS011;59039;52.108;19.942;2022-07-01T07:27:25;19.50;;;17.10;;
60919;SDS011;59039;52.108;19.942;2022-07-01T07:29:50;20.50;;;17.40;;
60919;SDS011;59039;52.108;19.942;2022-07-01T07:32:15;19.80;;;16.90;;
60919;SDS011;59039;52.108;19.942;2022-07-01T07:34:41;19.60;;;15.90;;
60919;SDS011;59039;52.108;19.942;2022-07-01T07:37:06;19.30;;;17.20;;
60919;SDS011;59039;52.108;19.942;2022-07-01T07:39:34;18.10;;;16.00;;
60919;SDS011;59039;52.108;19.942;2022-07-01T07:42:00;16.70;;;15.00;;
60919;SDS011;59039;52.108;19.942;2022-07-01T07:44:26;17.20;;;14.70;;
60919;SDS011;59039;52.108;19.942;2022-07-01T07:46:52;18.30;;;15.40;;
60919;SDS011;59039;52.108;19.942;2022-07-01T07:49:17;20.60;;;16.30;;
60919;SDS011;59039;52.108;19.942;2022-07-01T07:51:50;17.70;;;15.90;;
60919;SDS011;59039;52.108;19.942;2022-07-01T07:54:16;15.80;;;14.20;;
60919;SDS011;59039;52.108;19.942;2022-07-01T07:56:42;15.90;;;14.30;;
60919;SDS011;59039;52.108;19.942;2022-07-01T07:59:08;17.80;;;14.50;;
60919;SDS011;59039;52.108;19.942;2022-07-01T08:01:34;15.90;;;14.30;;
60919;SDS011;59039;52.108;19.942;2022-07-01T08:03:59;17.60;;;15.80;;
60919;SDS011;59039;52.108;19.942;2022-07-01T08:06:30;18.60;;;14.10;;
60919;SDS011;59039;52.108;19.942;2022-07-01T08:08:55;16.50;;;14.90;;
60919;SDS011;59039;52.108;19.942;2022-07-01T08:11:21;18.70;;;15.00;;
60919;SDS011;59039;52.108;19.942;2022-07-01T08:13:46;16.10;;;14.50;;
60919;SDS011;59039;52.108;19.942;2022-07-01T08:16:13;15.90;;;14.00;;
60919;SDS011;59039;52.108;19.942;2022-07-01T08:18:39;17.00;;;13.60;;
60919;SDS011;59039;52.108;19.942;2022-07-01T08:21:04;16.50;;;13.80;;
60919;SDS011;59039;52.108;19.942;2022-07-01T08:23:30;15.70;;;14.20;;
60919;SDS011;59039;52.108;19.942;2022-07-01T08:28:31;19.10;;;14.50;;
60919;SDS011;59039;52.108;19.942;2022-07-01T08:30:57;17.30;;;13.70;;
60919;SDS011;59039;52.108;19.942;2022-07-01T08:33:22;16.40;;;13.80;;
60919;SDS011;59039;52.108;19.942;2022-07-01T08:35:50;15.10;;;13.50;;
60919;SDS011;59039;52.108;19.942;2022-07-01T08:38:16;15.80;;;14.20;;
60919;SDS011;59039;52.108;19.942;2022-07-01T08:40:41;15.60;;;13.90;;
60919;SDS011;59039;52.108;19.942;2022-07-01T08:43:13;16.60;;;13.90;;
60919;SDS011;59039;52.108;19.942;2022-07-01T08:45:41;20.80;;;14.30;;
60919;SDS011;59039;52.108;19.942;2022-07-01T08:48:06;15.80;;;13.40;;
60919;SDS011;59039;52.108;19.942;2022-07-01T08:50:36;16.10;;;14.60;;
60919;SDS011;59039;52.108;19.942;2022-07-01T08:55:30;16.40;;;13.50;;
60919;SDS011;59039;52.108;19.942;2022-07-01T08:57:56;16.40;;;14.00;;
60919;SDS011;59039;52.108;19.942;2022-07-01T09:00:22;15.90;;;14.10;;
60919;SDS011;59039;52.108;19.942;2022-07-01T09:02:55;17.10;;;13.20;;
60919;SDS011;59039;52.108;19.942;2022-07-01T09:05:22;16.70;;;13.50;;
60919;SDS011;59039;52.108;19.942;2022-07-01T09:07:55;14.50;;;13.00;;
60919;SDS011;59039;52.108;19.942;2022-07-01T09:10:22;17.00;;;13.60;;
60919;SDS011;59039;52.108;19.942;2022-07-01T09:12:49;14.60;;;13.10;;
60919;SDS011;59039;52.108;19.942;2022-07-01T09:15:33;17.70;;;13.80;;
60919;SDS011;59039;52.108;19.942;2022-07-01T09:18:04;16.60;;;14.20;;
60919;SDS011;59039;52.108;19.942;2022-07-01T09:20:36;16.00;;;13.50;;
60919;SDS011;59039;52.108;19.942;2022-07-01T09:23:08;16.50;;;14.10;;
60919;SDS011;59039;52.108;19.942;2022-07-01T09:25:40;18.00;;;14.20;;
60919;SDS011;59039;52.108;19.942;2022-07-01T09:28:08;17.50;;;14.10;;
60919;SDS011;59039;52.108;19.942;2022-07-01T09:30:38;16.50;;;14.10;;
60919;SDS011;59039;52.108;19.942;2022-07-01T09:33:26;16.10;;;13.90;;
60919;SDS011;59039;52.108;19.942;2022-07-01T09:36:17;16.20;;;13.50;;
60919;SDS011;59039;52.108;19.942;2022-07-01T09:38:47;15.80;;;13.40;;
60919;SDS011;59039;52.108;19.942;2022-07-01T09:41:12;17.60;;;12.60;;
60919;SDS011;59039;52.108;19.942;2022-07-01T09:43:38;15.00;;;13.10;;
60919;SDS011;59039;52.108;19.942;2022-07-01T09:46:12;16.50;;;13.10;;
60919;SDS011;59039;52.108;19.942;2022-07-01T09:51:23;15.20;;;13.20;;
60919;SDS011;59039;52.108;19.942;2022-07-01T09:53:48;14.40;;;12.90;;
60919;SDS011;59039;52.108;19.942;2022-07-01T09:56:19;15.10;;;13.40;;
60919;SDS011;59039;52.108;19.942;2022-07-01T09:58:44;14.90;;;13.10;;
60919;SDS011;59039;52.108;19.942;2022-07-01T10:01:19;15.80;;;13.00;;
60919;SDS011;59039;52.108;19.942;2022-07-01T10:03:45;14.50;;;13.00;;
60919;SDS011;59039;52.108;19.942;2022-07-01T10:06:19;17.70;;;12.90;;
60919;SDS011;59039;52.108;19.942;2022-07-01T10:08:58;17.30;;;12.30;;
60919;SDS011;59039;52.108;19.942;2022-07-01T10:11:52;15.20;;;12.50;;
60919;SDS011;59039;52.108;19.942;2022-07-01T10:14:36;14.80;;;13.30;;
60919;SDS011;59039;52.108;19.942;2022-07-01T10:17:05;15.90;;;12.80;;
60919;SDS011;59039;52.108;19.942;2022-07-01T10:19:34;15.80;;;12.80;;
60919;SDS011;59039;52.108;19.942;2022-07-01T10:22:00;14.50;;;13.10;;
60919;SDS011;59039;52.108;19.942;2022-07-01T10:24:46;15.30;;;13.10;;
60919;SDS011;59039;52.108;19.942;2022-07-01T10:27:19;16.60;;;13.00;;
60919;SDS011;59039;52.108;19.942;2022-07-01T10:29:46;16.30;;;12.60;;
60919;SDS011;59039;52.108;19.942;2022-07-01T10:34:46;14.60;;;12.60;;
60919;SDS011;59039;52.108;19.942;2022-07-01T10:37:12;14.40;;;13.00;;
60919;SDS011;59039;52.108;19.942;2022-07-01T10:40:04;14.40;;;12.40;;
60919;SDS011;59039;52.108;19.942;2022-07-01T10:42:29;16.20;;;12.00;;
60919;SDS011;59039;52.108;19.942;2022-07-01T10:45:11;14.20;;;12.70;;
60919;SDS011;59039;52.108;19.942;2022-07-01T10:47:39;16.90;;;13.00;;
60919;SDS011;59039;52.108;19.942;2022-07-01T10:52:37;14.80;;;13.10;;
60919;SDS011;59039;52.108;19.942;2022-07-01T10:55:03;16.20;;;13.10;;
60919;SDS011;59039;52.108;19.942;2022-07-01T10:57:32;14.00;;;12.70;;
60919;SDS011;59039;52.108;19.942;2022-07-01T11:02:26;15.10;;;12.90;;
60919;SDS011;59039;52.108;19.942;2022-07-01T11:05:03;15.70;;;12.90;;
60919;SDS011;59039;52.108;19.942;2022-07-01T11:07:33;19.20;;;12.60;;
60919;SDS011;59039;52.108;19.942;2022-07-01T11:10:00;16.50;;;13.10;;
60919;SDS011;59039;52.108;19.942;2022-07-01T11:12:29;14.20;;;12.70;;
60919;SDS011;59039;52.108;19.942;2022-07-01T11:14:56;16.40;;;12.20;;
60919;SDS011;59039;52.108;19.942;2022-07-01T11:17:23;16.40;;;12.40;;
60919;SDS011;59039;52.108;19.942;2022-07-01T11:19:49;14.70;;;12.90;;
60919;SDS011;59039;52.108;19.942;2022-07-01T11:22:21;13.60;;;12.20;;
60919;SDS011;59039;52.108;19.942;2022-07-01T11:24:53;14.00;;;12.50;;
60919;SDS011;59039;52.108;19.942;2022-07-01T11:27:21;16.90;;;12.10;;
60919;SDS011;59039;52.108;19.942;2022-07-01T11:29:51;17.20;;;11.60;;
60919;SDS011;59039;52.108;19.942;2022-07-01T11:32:25;17.00;;;12.20;;
60919;SDS011;59039;52.108;19.942;2022-07-01T11:34:56;14.70;;;12.00;;
60919;SDS011;59039;52.108;19.942;2022-07-01T11:37:21;15.20;;;12.70;;
60919;SDS011;59039;52.108;19.942;2022-07-01T11:40:01;16.40;;;12.30;;
60919;SDS011;59039;52.108;19.942;2022-07-01T11:42:30;14.70;;;11.80;;
60919;SDS011;59039;52.108;19.942;2022-07-01T11:44:55;16.70;;;12.20;;
60919;SDS011;59039;52.108;19.942;2022-07-01T11:47:26;12.40;;;11.20;;
60919;SDS011;59039;52.108;19.942;2022-07-01T11:52:19;15.20;;;11.40;;
60919;SDS011;59039;52.108;19.942;2022-07-01T11:54:46;15.90;;;11.50;;
60919;SDS011;59039;52.108;19.942;2022-07-01T11:57:16;14.10;;;11.90;;
60919;SDS011;59039;52.108;19.942;2022-07-01T11:59:43;13.10;;;11.70;;
60919;SDS011;59039;52.108;19.942;2022-07-01T12:04:40;16.90;;;12.10;;
60919;SDS011;59039;52.108;19.942;2022-07-01T12:07:19;14.30;;;12.40;;
60919;SDS011;59039;52.108;19.942;2022-07-01T12:09:45;14.60;;;11.70;;
60919;SDS011;59039;52.108;19.942;2022-07-01T12:12:17;13.40;;;11.50;;
60919;SDS011;59039;52.108;19.942;2022-07-01T12:14:50;15.60;;;12.10;;
60919;SDS011;59039;52.108;19.942;2022-07-01T12:17:17;13.70;;;11.70;;
60919;SDS011;59039;52.108;19.942;2022-07-01T12:19:43;16.50;;;11.50;;
60919;SDS011;59039;52.108;19.942;2022-07-01T12:22:14;18.10;;;12.60;;
60919;SDS011;59039;52.108;19.942;2022-07-01T12:24:40;14.40;;;11.90;;
60919;SDS011;59039;52.108;19.942;2022-07-01T12:27:06;13.00;;;11.60;;
60919;SDS011;59039;52.108;19.942;2022-07-01T12:32:02;16.60;;;11.60;;
60919;SDS011;59039;52.108;19.942;2022-07-01T12:37:20;13.70;;;11.10;;
60919;SDS011;59039;52.108;19.942;2022-07-01T12:39:52;15.00;;;11.20;;
60919;SDS011;59039;52.108;19.942;2022-07-01T12:44:56;14.20;;;11.00;;
60919;SDS011;59039;52.108;19.942;2022-07-01T12:50:07;13.20;;;10.50;;
60919;SDS011;59039;52.108;19.942;2022-07-01T12:52:36;15.20;;;11.80;;
60919;SDS011;59039;52.108;19.942;2022-07-01T12:55:17;15.40;;;10.90;;
60919;SDS011;59039;52.108;19.942;2022-07-01T12:57:47;13.40;;;11.10;;
60919;SDS011;59039;52.108;19.942;2022-07-01T13:00:18;14.30;;;11.30;;
60919;SDS011;59039;52.108;19.942;2022-07-01T13:02:45;12.50;;;11.10;;
60919;SDS011;59039;52.108;19.942;2022-07-01T13:05:11;15.90;;;10.90;;
60919;SDS011;59039;52.108;19.942;2022-07-01T13:07:37;20.10;;;11.30;;
60919;SDS011;59039;52.108;19.942;2022-07-01T13:10:03;12.60;;;11.00;;
60919;SDS011;59039;52.108;19.942;2022-07-01T13:12:29;17.40;;;11.30;;
60919;SDS011;59039;52.108;19.942;2022-07-01T13:14:55;13.20;;;10.60;;
60919;SDS011;59039;52.108;19.942;2022-07-01T13:17:20;12.40;;;11.10;;
60919;SDS011;59039;52.108;19.942;2022-07-01T13:19:45;14.40;;;11.50;;
60919;SDS011;59039;52.108;19.942;2022-07-01T13:22:13;15.60;;;12.10;;
60919;SDS011;59039;52.108;19.942;2022-07-01T13:24:38;14.60;;;11.20;;
60919;SDS011;59039;52.108;19.942;2022-07-01T13:27:04;15.60;;;11.60;;
60919;SDS011;59039;52.108;19.942;2022-07-01T13:29:29;12.40;;;11.00;;
60919;SDS011;59039;52.108;19.942;2022-07-01T13:31:55;13.10;;;11.50;;
60919;SDS011;59039;52.108;19.942;2022-07-01T13:34:23;14.60;;;11.80;;
60919;SDS011;59039;52.108;19.942;2022-07-01T13:36:48;20.00;;;12.00;;
60919;SDS011;59039;52.108;19.942;2022-07-01T13:39:14;13.70;;;11.60;;
60919;SDS011;59039;52.108;19.942;2022-07-01T13:41:39;16.50;;;11.10;;
60919;SDS011;59039;52.108;19.942;2022-07-01T13:44:05;12.50;;;11.00;;
60919;SDS011;59039;52.108;19.942;2022-07-01T13:46:30;12.80;;;10.70;;
60919;SDS011;59039;52.108;19.942;2022-07-01T13:48:56;13.50;;;11.30;;
60919;SDS011;59039;52.108;19.942;2022-07-01T13:51:21;13.20;;;11.40;;
60919;SDS011;59039;52.108;19.942;2022-07-01T13:53:47;13.20;;;11.70;;
60919;SDS011;59039;52.108;19.942;2022-07-01T13:56:12;14.70;;;11.60;;
60919;SDS011;59039;52.108;19.942;2022-07-01T13:58:37;17.90;;;11.50;;
60919;SDS011;59039;52.108;19.942;2022-07-01T14:01:03;16.30;;;11.80;;
60919;SDS011;59039;52.108;19.942;2022-07-01T14:03:28;14.10;;;11.40;;
60919;SDS011;59039;52.108;19.942;2022-07-01T14:05:53;16.40;;;10.90;;
60919;SDS011;59039;52.108;19.942;2022-07-01T14:08:19;12.30;;;11.10;;
60919;SDS011;59039;52.108;19.942;2022-07-01T14:10:44;15.30;;;11.30;;
60919;SDS011;59039;52.108;19.942;2022-07-01T14:13:10;13.50;;;10.70;;
60919;SDS011;59039;52.108;19.942;2022-07-01T14:15:35;18.80;;;11.00;;
60919;SDS011;59039;52.108;19.942;2022-07-01T14:18:01;17.20;;;11.40;;
60919;SDS011;59039;52.108;19.942;2022-07-01T14:20:27;14.10;;;10.60;;
60919;SDS011;59039;52.108;19.942;2022-07-01T14:22:52;12.60;;;11.30;;
60919;SDS011;59039;52.108;19.942;2022-07-01T14:25:18;13.80;;;10.80;;
60919;SDS011;59039;52.108;19.942;2022-07-01T14:27:43;16.40;;;11.60;;
60919;SDS011;59039;52.108;19.942;2022-07-01T14:30:09;15.70;;;11.80;;
60919;SDS011;59039;52.108;19.942;2022-07-01T14:32:36;12.30;;;11.00;;
60919;SDS011;59039;52.108;19.942;2022-07-01T14:35:02;15.00;;;11.30;;
60919;SDS011;59039;52.108;19.942;2022-07-01T14:37:27;13.40;;;10.70;;
60919;SDS011;59039;52.108;19.942;2022-07-01T14:39:52;12.80;;;10.00;;
60919;SDS011;59039;52.108;19.942;2022-07-01T14:42:18;14.40;;;11.30;;
60919;SDS011;59039;52.108;19.942;2022-07-01T14:44:43;16.10;;;11.40;;
60919;SDS011;59039;52.108;19.942;2022-07-01T14:47:08;14.50;;;11.30;;
60919;SDS011;59039;52.108;19.942;2022-07-01T14:49:33;13.00;;;10.70;;
60919;SDS011;59039;52.108;19.942;2022-07-01T14:51:59;12.60;;;11.30;;
60919;SDS011;59039;52.108;19.942;2022-07-01T14:54:24;14.30;;;10.50;;
60919;SDS011;59039;52.108;19.942;2022-07-01T14:56:49;13.20;;;11.00;;
60919;SDS011;59039;52.108;19.942;2022-07-01T14:59:14;14.10;;;11.20;;
60919;SDS011;59039;52.108;19.942;2022-07-01T15:01:40;13.50;;;11.10;;
60919;SDS011;59039;52.108;19.942;2022-07-01T15:04:05;15.90;;;11.10;;